Time;durP1;ratioP1;P1;durP2;ratioP2;P2;SDS_P1;SDS_P2;PMS_P1;PMS_P2;Temp;Humidity;BMP_temperature;BMP_pressure;BME280_temperature;BME280_humidity;BME280_pressure;Samples;Min_cycle;Max_cycle;Signal;HPM_P1;HPM_P2
2021/11/28 00:01:40;;;;;;;;;;;;;;;;;;;;;
2021/11/28 00:16:43;;;;;;;19.07;12.10;;;;;;;9.21;70.09;93056.14;833203;71;32755;-80
2021/11/28 00:31:57;;;;;;;27.55;16.50;;;;;;;9.41;71.13;93093.39;779137;74;33164;-82
2021/11/28 01:16:44;;;;;;;19.25;13.55;;;;;;;9.28;73.01;93045.93;821469;71;32812;-79
2021/11/28 01:31:33;;;;;;;25.57;15.20;;;;;;;;;;825042;71;33337;-80
2021/11/28 01:46:58;;;;;;;22.67;14.83;;;;;;;9.38;73.35;93061.28;780408;75;33304;-80
2021/11/28 03:16:54;;;;;;;14.98;10.88;;;;;;;8.94;74.19;93004.97;810090;72;32900;-79
2021/11/28 03:47:06;;;;;;;;;;;;;;;;;;;;;
2021/11/28 05:31:19;;;;;;;14.53;7.80;;;;;;;8.14;76.45;93151.73;822796;71;33436;-76
2021/11/28 09:16:11;;;;;;;5.28;4.50;;;;;;;12.41;62.22;93174.86;829907;71;29294;-78
2021/11/28 09:31:15;;;;;;;5.72;4.83;;;;;;;12.85;59.61;93126.81;812941;71;32484;-77
2021/11/28 09:46:11;;;;;;;7.78;5.55;;;;;;;13.14;60.50;93112.55;821940;71;29271;-77
2021/11/28 10:01:14;;;;;;;5.03;4.37;;;;;;;13.40;57.08;93082.33;813989;70;32296;-79
2021/11/28 10:16:17;;;;;;;3.62;3.33;;;;;;;13.79;55.53;93058.78;818568;70;31719;-79
2021/11/28 10:31:11;;;;;;;2.67;2.10;;;;;;;14.06;52.71;93016.20;816165;70;28743;-78
2021/11/28 10:46:30;;;;;;;2.22;2.12;;;;;;;14.33;49.01;93014.48;833420;70;30991;-77
2021/11/28 11:01:10;;;;;;;3.60;3.10;;;;;;;14.46;50.53;93043.39;817928;70;28828;-77
2021/11/28 11:16:36;;;;;;;4.42;4.03;;;;;;;14.27;52.54;93046.77;828155;71;31718;-75
2021/11/28 11:31:16;;;;;;;2.72;2.52;;;;;;;14.42;51.12;93019.00;817119;71;31796;-77
2021/11/28 11:46:10;;;;;;;5.42;3.67;;;;;;;14.76;50.56;93052.30;827160;70;29264;-79
2021/11/28 12:01:20;;;;;;;387.33;190.73;;;;;;;15.07;47.03;92998.30;814816;71;29256;-76
2021/11/28 12:16:15;;;;;;;3.40;3.10;;;;;;;15.09;45.92;93027.20;820493;70;29839;-78
2021/11/28 12:31:17;;;;;;;1.85;1.72;;;;;;;14.97;45.20;93044.55;827047;71;31791;-76
2021/11/28 12:46:17;;;;;;;1.80;1.70;;;;;;;15.61;43.79;93003.29;833102;71;32728;-76
2021/11/28 13:01:17;;;;;;;1.80;1.70;;;;;;;15.62;43.11;92969.11;816983;71;31992;-78
2021/11/28 13:16:31;;;;;;;1.98;1.87;;;;;;;15.55;43.01;92950.52;825202;71;31990;-78
2021/11/28 13:31:20;;;;;;;1.90;1.80;;;;;;;15.58;43.26;92937.89;819426;71;31964;-76
2021/11/28 13:46:09;;;;;;;2.17;1.98;;;;;;;15.29;42.47;92949.17;827004;71;29331;-78
2021/11/28 14:01:18;;;;;;;2.20;2.00;;;;;;;15.05;41.37;92942.41;833574;71;32348;-74
2021/11/28 14:16:09;;;;;;;3.30;2.10;;;;;;;14.76;42.82;92946.67;833747;71;29299;-76
2021/11/28 14:31:12;;;;;;;3.05;2.35;;;;;;;14.56;43.30;92932.00;825557;71;29152;-77
2021/11/28 14:46:23;;;;;;;4.65;3.40;;;;;;;14.40;42.59;92930.75;827400;71;31721;-79
2021/11/28 16:01:55;;;;;;;5.22;4.08;;;;;;;13.01;51.75;92821.44;867458;67;31667;-82
2021/11/28 17:46:37;;;;;;;15.50;10.50;;;;;;;12.02;63.75;92791.18;827035;71;32835;-83
2021/11/28 18:01:28;;;;;;;13.93;11.45;;;;;;;11.93;64.61;92769.57;833569;71;32911;-78
2021/11/28 18:31:39;;;;;;;;;;;;;;;;;;;;;
2021/11/28 18:46:46;;;;;;;17.15;13.72;;;;;;;11.74;68.77;92776.22;833480;71;32888;-82
2021/11/28 20:01:42;;;;;;;37.45;26.65;;;;;;;11.26;70.31;92638.06;792115;74;34224;-79
2021/11/28 20:31:55;;;;;;;26.02;19.27;;;;;;;11.40;71.12;92627.34;820815;71;32812;-80
2021/11/28 22:46:53;;;;;;;32.95;24.05;;;;;;;10.74;83.90;92454.23;833655;71;32859;-78
2021/11/28 23:01:55;;;;;;;29.92;21.77;;;;;;;10.68;85.23;92465.32;833975;71;33656;-79
